sensor_id;sensor_type;location;lat;lon;timestamp;temperature;humidity
28069;DHT22;15382;47.578;8.086;2022-07-23T00:07:35;20.60;99.90
28069;DHT22;15382;47.578;8.086;2022-07-23T00:17:36;20.40;99.90
28069;DHT22;15382;47.578;8.086;2022-07-23T00:27:37;20.20;99.90
28069;DHT22;15382;47.578;8.086;2022-07-23T00:37:38;19.90;99.90
28069;DHT22;15382;47.578;8.086;2022-07-23T00:47:39;20.00;99.90
28069;DHT22;15382;47.578;8.086;2022-07-23T00:57:41;20.20;99.90
28069;DHT22;15382;47.578;8.086;2022-07-23T01:07:42;20.00;99.90
28069;DHT22;15382;47.578;8.086;2022-07-23T01:17:43;19.70;99.90
28069;DHT22;15382;47.578;8.086;2022-07-23T01:27:44;19.60;99.90
28069;DHT22;15382;47.578;8.086;2022-07-23T01:37:45;19.60;99.90
28069;DHT22;15382;47.578;8.086;2022-07-23T01:47:48;19.50;99.90
28069;DHT22;15382;47.578;8.086;2022-07-23T01:57:49;19.60;99.90
28069;DHT22;15382;47.578;8.086;2022-07-23T02:07:54;19.30;99.90
28069;DHT22;15382;47.578;8.086;2022-07-23T02:17:55;19.70;99.90
28069;DHT22;15382;47.578;8.086;2022-07-23T02:27:56;19.70;99.90
28069;DHT22;15382;47.578;8.086;2022-07-23T02:37:57;19.60;99.90
28069;DHT22;15382;47.578;8.086;2022-07-23T02:47:58;19.40;99.90
28069;DHT22;15382;47.578;8.086;2022-07-23T02:58:00;19.40;99.90
28069;DHT22;15382;47.578;8.086;2022-07-23T03:08:02;19.50;99.90
28069;DHT22;15382;47.578;8.086;2022-07-23T03:18:03;19.50;99.90
28069;DHT22;15382;47.578;8.086;2022-07-23T03:28:04;19.80;99.90
28069;DHT22;15382;47.578;8.086;2022-07-23T03:38:05;19.70;99.90
28069;DHT22;15382;47.578;8.086;2022-07-23T03:48:06;19.70;99.90
28069;DHT22;15382;47.578;8.086;2022-07-23T03:58:07;19.60;99.90
28069;DHT22;15382;47.578;8.086;2022-07-23T04:08:08;19.70;99.90
28069;DHT22;15382;47.578;8.086;2022-07-23T04:18:13;19.30;99.90
28069;DHT22;15382;47.578;8.086;2022-07-23T04:28:28;19.40;99.90
28069;DHT22;15382;47.578;8.086;2022-07-23T04:38:29;19.00;99.90
28069;DHT22;15382;47.578;8.086;2022-07-23T04:48:34;18.90;99.90
28069;DHT22;15382;47.578;8.086;2022-07-23T04:58:42;18.90;99.90
28069;DHT22;15382;47.578;8.086;2022-07-23T05:08:44;18.90;99.90
28069;DHT22;15382;47.578;8.086;2022-07-23T05:18:46;18.80;99.90
28069;DHT22;15382;47.578;8.086;2022-07-23T05:28:46;19.20;99.90
28069;DHT22;15382;47.578;8.086;2022-07-23T05:38:47;19.40;99.90
28069;DHT22;15382;47.578;8.086;2022-07-23T05:48:49;19.60;99.90
28069;DHT22;15382;47.578;8.086;2022-07-23T05:59:10;19.80;99.90
28069;DHT22;15382;47.578;8.086;2022-07-23T06:09:13;20.00;99.90
28069;DHT22;15382;47.578;8.086;2022-07-23T06:19:15;20.00;99.90
28069;DHT22;15382;47.578;8.086;2022-07-23T06:29:16;20.20;99.90
28069;DHT22;15382;47.578;8.086;2022-07-23T06:39:17;20.20;99.90
28069;DHT22;15382;47.578;8.086;2022-07-23T06:49:22;19.90;99.90
28069;DHT22;15382;47.578;8.086;2022-07-23T06:59:23;20.30;99.90
28069;DHT22;15382;47.578;8.086;2022-07-23T07:09:24;20.40;99.90
28069;DHT22;15382;47.578;8.086;2022-07-23T07:19:25;20.50;99.90
28069;DHT22;15382;47.578;8.086;2022-07-23T07:29:25;21.00;99.90
28069;DHT22;15382;47.578;8.086;2022-07-23T07:39:26;20.80;99.90
28069;DHT22;15382;47.578;8.086;2022-07-23T07:49:27;21.00;99.90
28069;DHT22;15382;47.578;8.086;2022-07-23T07:59:28;22.10;99.90
28069;DHT22;15382;47.578;8.086;2022-07-23T08:09:29;22.00;99.90
28069;DHT22;15382;47.578;8.086;2022-07-23T08:19:30;21.80;99.90
28069;DHT22;15382;47.578;8.086;2022-07-23T08:29:30;21.80;99.90
28069;DHT22;15382;47.578;8.086;2022-07-23T08:39:31;21.40;99.90
28069;DHT22;15382;47.578;8.086;2022-07-23T08:49:32;21.40;99.90
28069;DHT22;15382;47.578;8.086;2022-07-23T08:59:33;22.20;99.90
28069;DHT22;15382;47.578;8.086;2022-07-23T09:09:34;23.30;99.90
28069;DHT22;15382;47.578;8.086;2022-07-23T09:19:34;24.60;99.90
28069;DHT22;15382;47.578;8.086;2022-07-23T09:29:35;24.60;99.90
28069;DHT22;15382;47.578;8.086;2022-07-23T09:39:36;24.70;99.90
28069;DHT22;15382;47.578;8.086;2022-07-23T09:49:37;24.30;99.90
28069;DHT22;15382;47.578;8.086;2022-07-23T09:59:39;24.90;99.90
28069;DHT22;15382;47.578;8.086;2022-07-23T10:09:40;25.80;99.90
28069;DHT22;15382;47.578;8.086;2022-07-23T10:20:00;25.10;99.90
28069;DHT22;15382;47.578;8.086;2022-07-23T10:30:07;24.70;99.90
28069;DHT22;15382;47.578;8.086;2022-07-23T10:40:14;25.80;99.90
28069;DHT22;15382;47.578;8.086;2022-07-23T11:00:24;25.70;99.90
28069;DHT22;15382;47.578;8.086;2022-07-23T11:20:34;26.50;99.90
28069;DHT22;15382;47.578;8.086;2022-07-23T11:40:36;27.40;99.90
28069;DHT22;15382;47.578;8.086;2022-07-23T11:50:37;28.00;99.90
28069;DHT22;15382;47.578;8.086;2022-07-23T12:00:41;27.80;99.90
28069;DHT22;15382;47.578;8.086;2022-07-23T12:10:43;27.40;99.90
28069;DHT22;15382;47.578;8.086;2022-07-23T12:20:51;28.00;99.90
28069;DHT22;15382;47.578;8.086;2022-07-23T12:30:53;27.60;99.90
28069;DHT22;15382;47.578;8.086;2022-07-23T12:40:56;27.80;99.90
28069;DHT22;15382;47.578;8.086;2022-07-23T12:51:02;27.60;99.90
28069;DHT22;15382;47.578;8.086;2022-07-23T13:01:04;27.90;99.90
28069;DHT22;15382;47.578;8.086;2022-07-23T13:11:06;28.50;99.90
28069;DHT22;15382;47.578;8.086;2022-07-23T13:21:07;27.90;99.90
28069;DHT22;15382;47.578;8.086;2022-07-23T13:31:08;28.20;99.90
28069;DHT22;15382;47.578;8.086;2022-07-23T13:41:10;28.30;99.90
28069;DHT22;15382;47.578;8.086;2022-07-23T13:51:11;28.20;99.90
28069;DHT22;15382;47.578;8.086;2022-07-23T14:01:13;29.30;99.90
28069;DHT22;15382;47.578;8.086;2022-07-23T14:11:14;29.10;99.90
28069;DHT22;15382;47.578;8.086;2022-07-23T14:21:14;29.20;99.90
28069;DHT22;15382;47.578;8.086;2022-07-23T14:31:15;30.60;99.90
28069;DHT22;15382;47.578;8.086;2022-07-23T14:41:16;30.30;99.90
28069;DHT22;15382;47.578;8.086;2022-07-23T14:51:17;29.60;99.90
28069;DHT22;15382;47.578;8.086;2022-07-23T15:01:18;30.20;99.90
28069;DHT22;15382;47.578;8.086;2022-07-23T15:11:19;30.10;99.90
28069;DHT22;15382;47.578;8.086;2022-07-23T15:21:20;30.10;99.90
28069;DHT22;15382;47.578;8.086;2022-07-23T15:31:21;31.00;99.90
28069;DHT22;15382;47.578;8.086;2022-07-23T15:41:22;30.40;99.90
28069;DHT22;15382;47.578;8.086;2022-07-23T15:51:22;30.10;99.90
28069;DHT22;15382;47.578;8.086;2022-07-23T16:01:23;29.70;99.90
28069;DHT22;15382;47.578;8.086;2022-07-23T16:11:24;29.30;99.90
28069;DHT22;15382;47.578;8.086;2022-07-23T16:21:25;29.40;99.90
28069;DHT22;15382;47.578;8.086;2022-07-23T16:31:26;28.90;99.90
28069;DHT22;15382;47.578;8.086;2022-07-23T16:41:27;29.00;99.90
28069;DHT22;15382;47.578;8.086;2022-07-23T16:51:28;28.90;99.90
28069;DHT22;15382;47.578;8.086;2022-07-23T17:01:29;28.70;99.90
28069;DHT22;15382;47.578;8.086;2022-07-23T17:11:30;28.60;99.90
28069;DHT22;15382;47.578;8.086;2022-07-23T17:21:31;28.70;99.90
28069;DHT22;15382;47.578;8.086;2022-07-23T17:31:31;28.60;99.90
28069;DHT22;15382;47.578;8.086;2022-07-23T17:41:33;28.70;99.90
28069;DHT22;15382;47.578;8.086;2022-07-23T17:51:34;28.30;99.90
28069;DHT22;15382;47.578;8.086;2022-07-23T18:01:36;28.10;99.90
28069;DHT22;15382;47.578;8.086;2022-07-23T18:11:38;27.80;99.90
28069;DHT22;15382;47.578;8.086;2022-07-23T18:21:39;27.50;99.90
28069;DHT22;15382;47.578;8.086;2022-07-23T18:31:40;27.20;99.90
28069;DHT22;15382;47.578;8.086;2022-07-23T18:41:41;26.70;99.90
28069;DHT22;15382;47.578;8.086;2022-07-23T18:51:42;26.00;99.90
28069;DHT22;15382;47.578;8.086;2022-07-23T19:01:43;25.40;99.90
28069;DHT22;15382;47.578;8.086;2022-07-23T19:11:45;25.10;99.90
28069;DHT22;15382;47.578;8.086;2022-07-23T19:21:46;24.70;99.90
28069;DHT22;15382;47.578;8.086;2022-07-23T19:31:47;24.70;99.90
28069;DHT22;15382;47.578;8.086;2022-07-23T19:41:47;24.30;99.90
28069;DHT22;15382;47.578;8.086;2022-07-23T19:51:48;24.00;99.90
28069;DHT22;15382;47.578;8.086;2022-07-23T20:01:49;23.60;99.90
28069;DHT22;15382;47.578;8.086;2022-07-23T20:11:50;23.40;99.90
28069;DHT22;15382;47.578;8.086;2022-07-23T20:21:51;22.80;99.90
28069;DHT22;15382;47.578;8.086;2022-07-23T20:31:52;22.60;99.90
28069;DHT22;15382;47.578;8.086;2022-07-23T20:41:53;22.50;99.90
28069;DHT22;15382;47.578;8.086;2022-07-23T20:51:54;22.60;99.90
28069;DHT22;15382;47.578;8.086;2022-07-23T21:01:55;22.30;99.90
28069;DHT22;15382;47.578;8.086;2022-07-23T21:11:55;22.20;99.90
28069;DHT22;15382;47.578;8.086;2022-07-23T21:21:56;22.10;99.90
28069;DHT22;15382;47.578;8.086;2022-07-23T21:31:57;22.00;99.90
28069;DHT22;15382;47.578;8.086;2022-07-23T21:41:58;21.20;99.90
28069;DHT22;15382;47.578;8.086;2022-07-23T21:51:59;21.70;99.90
28069;DHT22;15382;47.578;8.086;2022-07-23T22:02:00;21.80;99.90
28069;DHT22;15382;47.578;8.086;2022-07-23T22:12:01;21.50;99.90
28069;DHT22;15382;47.578;8.086;2022-07-23T22:22:02;21.60;99.90
28069;DHT22;15382;47.578;8.086;2022-07-23T22:32:03;21.40;99.90
28069;DHT22;15382;47.578;8.086;2022-07-23T22:42:04;21.00;99.90
28069;DHT22;15382;47.578;8.086;2022-07-23T22:52:05;21.00;99.90
28069;DHT22;15382;47.578;8.086;2022-07-23T23:02:05;20.80;99.90
28069;DHT22;15382;47.578;8.086;2022-07-23T23:12:07;21.00;99.90
28069;DHT22;15382;47.578;8.086;2022-07-23T23:22:08;20.70;99.90
28069;DHT22;15382;47.578;8.086;2022-07-23T23:32:09;20.70;99.90
28069;DHT22;15382;47.578;8.086;2022-07-23T23:42:09;20.60;99.90
28069;DHT22;15382;47.578;8.086;2022-07-23T23:52:10;20.50;99.90
